sensor_id;sensor_type;location;lat;lon;timestamp;P1;durP1;ratioP1;P2;durP2;ratioP2
52274;SDS011;38228;50.940;4.024;2023-10-19T00:00:33;4.15;;;0.75;;
52274;SDS011;38228;50.940;4.024;2023-10-19T00:03:01;8.52;;;0.70;;
52274;SDS011;38228;50.940;4.024;2023-10-19T00:05:30;2.28;;;0.68;;
52274;SDS011;38228;50.940;4.024;2023-10-19T00:07:57;5.05;;;1.27;;
52274;SDS011;38228;50.940;4.024;2023-10-19T00:10:25;4.00;;;0.68;;
52274;SDS011;38228;50.940;4.024;2023-10-19T00:12:54;5.53;;;0.80;;
52274;SDS011;38228;50.940;4.024;2023-10-19T00:15:32;5.32;;;0.93;;
52274;SDS011;38228;50.940;4.024;2023-10-19T00:18:17;5.18;;;0.73;;
52274;SDS011;38228;50.940;4.024;2023-10-19T00:20:48;4.90;;;0.98;;
52274;SDS011;38228;50.940;4.024;2023-10-19T00:23:19;3.65;;;0.75;;
52274;SDS011;38228;50.940;4.024;2023-10-19T00:25:58;1.95;;;0.70;;
52274;SDS011;38228;50.940;4.024;2023-10-19T00:28:25;2.97;;;0.70;;
52274;SDS011;38228;50.940;4.024;2023-10-19T00:30:52;3.75;;;0.80;;
52274;SDS011;38228;50.940;4.024;2023-10-19T00:33:19;4.15;;;1.08;;
52274;SDS011;38228;50.940;4.024;2023-10-19T00:35:53;3.17;;;0.70;;
52274;SDS011;38228;50.940;4.024;2023-10-19T00:38:25;3.97;;;0.77;;
52274;SDS011;38228;50.940;4.024;2023-10-19T00:41:17;3.53;;;0.77;;
52274;SDS011;38228;50.940;4.024;2023-10-19T00:43:52;4.30;;;0.95;;
52274;SDS011;38228;50.940;4.024;2023-10-19T00:46:36;5.03;;;0.57;;
52274;SDS011;38228;50.940;4.024;2023-10-19T00:49:14;4.15;;;0.65;;
52274;SDS011;38228;50.940;4.024;2023-10-19T00:51:41;9.45;;;0.93;;
52274;SDS011;38228;50.940;4.024;2023-10-19T00:57:23;4.78;;;0.88;;
52274;SDS011;38228;50.940;4.024;2023-10-19T01:00:00;4.95;;;0.85;;
52274;SDS011;38228;50.940;4.024;2023-10-19T01:02:39;6.18;;;0.77;;
52274;SDS011;38228;50.940;4.024;2023-10-19T01:05:11;5.70;;;1.13;;
52274;SDS011;38228;50.940;4.024;2023-10-19T01:07:40;5.63;;;0.60;;
52274;SDS011;38228;50.940;4.024;2023-10-19T01:10:06;4.88;;;0.90;;
52274;SDS011;38228;50.940;4.024;2023-10-19T01:12:45;5.43;;;0.65;;
52274;SDS011;38228;50.940;4.024;2023-10-19T01:15:13;6.53;;;1.08;;
52274;SDS011;38228;50.940;4.024;2023-10-19T01:17:48;5.30;;;0.90;;
52274;SDS011;38228;50.940;4.024;2023-10-19T01:20:20;6.43;;;0.90;;
52274;SDS011;38228;50.940;4.024;2023-10-19T01:22:53;3.33;;;0.60;;
52274;SDS011;38228;50.940;4.024;2023-10-19T01:28:24;6.60;;;1.33;;
52274;SDS011;38228;50.940;4.024;2023-10-19T01:31:13;7.75;;;1.10;;
52274;SDS011;38228;50.940;4.024;2023-10-19T01:33:42;5.28;;;1.08;;
52274;SDS011;38228;50.940;4.024;2023-10-19T01:36:09;6.22;;;0.77;;
52274;SDS011;38228;50.940;4.024;2023-10-19T01:38:36;4.32;;;0.75;;
52274;SDS011;38228;50.940;4.024;2023-10-19T01:41:03;5.43;;;0.77;;
52274;SDS011;38228;50.940;4.024;2023-10-19T01:43:42;5.35;;;1.02;;
52274;SDS011;38228;50.940;4.024;2023-10-19T01:46:09;6.93;;;0.90;;
52274;SDS011;38228;50.940;4.024;2023-10-19T01:48:39;7.97;;;1.35;;
52274;SDS011;38228;50.940;4.024;2023-10-19T01:51:09;3.60;;;1.05;;
52274;SDS011;38228;50.940;4.024;2023-10-19T01:53:39;7.57;;;1.27;;
52274;SDS011;38228;50.940;4.024;2023-10-19T01:56:08;6.50;;;1.05;;
52274;SDS011;38228;50.940;4.024;2023-10-19T01:58:38;7.95;;;1.60;;
52274;SDS011;38228;50.940;4.024;2023-10-19T02:01:05;5.72;;;1.10;;
52274;SDS011;38228;50.940;4.024;2023-10-19T02:03:36;6.15;;;1.17;;
52274;SDS011;38228;50.940;4.024;2023-10-19T02:06:02;7.75;;;1.30;;
52274;SDS011;38228;50.940;4.024;2023-10-19T02:08:52;5.57;;;1.33;;
52274;SDS011;38228;50.940;4.024;2023-10-19T02:11:25;7.50;;;1.13;;
52274;SDS011;38228;50.940;4.024;2023-10-19T02:13:52;6.95;;;1.30;;
52274;SDS011;38228;50.940;4.024;2023-10-19T02:16:20;7.90;;;1.15;;
52274;SDS011;38228;50.940;4.024;2023-10-19T02:18:50;6.25;;;1.27;;
52274;SDS011;38228;50.940;4.024;2023-10-19T02:21:16;6.65;;;1.20;;
52274;SDS011;38228;50.940;4.024;2023-10-19T02:23:52;8.68;;;1.25;;
52274;SDS011;38228;50.940;4.024;2023-10-19T02:26:19;9.93;;;1.20;;
52274;SDS011;38228;50.940;4.024;2023-10-19T02:28:46;8.27;;;1.50;;
52274;SDS011;38228;50.940;4.024;2023-10-19T02:31:12;8.13;;;1.45;;
52274;SDS011;38228;50.940;4.024;2023-10-19T02:33:44;5.72;;;0.98;;
52274;SDS011;38228;50.940;4.024;2023-10-19T02:36:28;5.03;;;1.02;;
52274;SDS011;38228;50.940;4.024;2023-10-19T02:38:55;8.00;;;1.30;;
52274;SDS011;38228;50.940;4.024;2023-10-19T02:41:38;6.05;;;0.90;;
52274;SDS011;38228;50.940;4.024;2023-10-19T02:44:10;10.10;;;1.65;;
52274;SDS011;38228;50.940;4.024;2023-10-19T02:46:46;10.27;;;1.38;;
52274;SDS011;38228;50.940;4.024;2023-10-19T02:49:15;8.45;;;1.17;;
52274;SDS011;38228;50.940;4.024;2023-10-19T02:51:51;13.10;;;1.35;;
52274;SDS011;38228;50.940;4.024;2023-10-19T02:54:21;8.65;;;1.23;;
52274;SDS011;38228;50.940;4.024;2023-10-19T02:56:52;7.43;;;1.33;;
52274;SDS011;38228;50.940;4.024;2023-10-19T02:59:19;8.32;;;1.65;;
52274;SDS011;38228;50.940;4.024;2023-10-19T03:01:58;9.70;;;1.20;;
52274;SDS011;38228;50.940;4.024;2023-10-19T03:04:37;4.70;;;1.15;;
52274;SDS011;38228;50.940;4.024;2023-10-19T03:07:03;8.32;;;1.77;;
52274;SDS011;38228;50.940;4.024;2023-10-19T03:09:30;5.72;;;1.25;;
52274;SDS011;38228;50.940;4.024;2023-10-19T03:12:01;6.53;;;1.42;;
52274;SDS011;38228;50.940;4.024;2023-10-19T03:14:29;11.75;;;1.85;;
52274;SDS011;38228;50.940;4.024;2023-10-19T03:16:56;9.48;;;1.77;;
52274;SDS011;38228;50.940;4.024;2023-10-19T03:19:23;11.57;;;1.52;;
52274;SDS011;38228;50.940;4.024;2023-10-19T03:21:52;8.32;;;1.52;;
52274;SDS011;38228;50.940;4.024;2023-10-19T03:24:20;8.80;;;1.42;;
52274;SDS011;38228;50.940;4.024;2023-10-19T03:27:06;12.30;;;2.05;;
52274;SDS011;38228;50.940;4.024;2023-10-19T03:29:42;10.10;;;1.40;;
52274;SDS011;38228;50.940;4.024;2023-10-19T03:32:14;8.40;;;1.42;;
52274;SDS011;38228;50.940;4.024;2023-10-19T03:34:41;7.65;;;1.65;;
52274;SDS011;38228;50.940;4.024;2023-10-19T03:37:12;9.50;;;1.25;;
52274;SDS011;38228;50.940;4.024;2023-10-19T03:39:39;17.00;;;1.67;;
52274;SDS011;38228;50.940;4.024;2023-10-19T03:42:06;10.48;;;1.33;;
52274;SDS011;38228;50.940;4.024;2023-10-19T03:44:33;9.90;;;1.70;;
52274;SDS011;38228;50.940;4.024;2023-10-19T03:47:14;10.77;;;1.25;;
52274;SDS011;38228;50.940;4.024;2023-10-19T03:49:45;9.73;;;1.50;;
52274;SDS011;38228;50.940;4.024;2023-10-19T03:52:12;8.18;;;1.40;;
52274;SDS011;38228;50.940;4.024;2023-10-19T03:54:38;10.43;;;1.73;;
52274;SDS011;38228;50.940;4.024;2023-10-19T03:57:09;12.90;;;1.65;;
52274;SDS011;38228;50.940;4.024;2023-10-19T03:59:50;10.45;;;1.40;;
52274;SDS011;38228;50.940;4.024;2023-10-19T04:02:21;10.27;;;1.42;;
52274;SDS011;38228;50.940;4.024;2023-10-19T04:04:48;8.07;;;1.48;;
52274;SDS011;38228;50.940;4.024;2023-10-19T04:07:14;13.15;;;1.58;;
52274;SDS011;38228;50.940;4.024;2023-10-19T04:09:53;8.50;;;1.33;;
52274;SDS011;38228;50.940;4.024;2023-10-19T04:12:32;9.05;;;2.03;;
52274;SDS011;38228;50.940;4.024;2023-10-19T04:15:01;12.93;;;1.65;;
52274;SDS011;38228;50.940;4.024;2023-10-19T04:17:35;6.43;;;1.55;;
52274;SDS011;38228;50.940;4.024;2023-10-19T04:20:05;10.77;;;1.63;;
52274;SDS011;38228;50.940;4.024;2023-10-19T04:22:47;11.77;;;1.63;;
52274;SDS011;38228;50.940;4.024;2023-10-19T04:25:15;8.35;;;1.30;;
52274;SDS011;38228;50.940;4.024;2023-10-19T04:27:45;12.20;;;1.67;;
52274;SDS011;38228;50.940;4.024;2023-10-19T04:30:11;11.27;;;1.77;;
52274;SDS011;38228;50.940;4.024;2023-10-19T04:32:42;10.07;;;1.92;;
52274;SDS011;38228;50.940;4.024;2023-10-19T04:35:08;10.68;;;1.45;;
52274;SDS011;38228;50.940;4.024;2023-10-19T04:37:35;7.00;;;1.40;;
52274;SDS011;38228;50.940;4.024;2023-10-19T04:40:01;10.15;;;1.55;;
52274;SDS011;38228;50.940;4.024;2023-10-19T04:42:27;7.03;;;1.33;;
52274;SDS011;38228;50.940;4.024;2023-10-19T04:44:56;13.68;;;2.28;;
52274;SDS011;38228;50.940;4.024;2023-10-19T04:47:22;19.67;;;1.88;;
52274;SDS011;38228;50.940;4.024;2023-10-19T04:49:48;9.68;;;1.95;;
52274;SDS011;38228;50.940;4.024;2023-10-19T04:52:14;10.05;;;1.90;;
52274;SDS011;38228;50.940;4.024;2023-10-19T04:54:40;13.38;;;1.80;;
52274;SDS011;38228;50.940;4.024;2023-10-19T04:57:07;9.18;;;1.80;;
52274;SDS011;38228;50.940;4.024;2023-10-19T04:59:33;9.32;;;1.90;;
52274;SDS011;38228;50.940;4.024;2023-10-19T05:01:59;14.27;;;1.80;;
52274;SDS011;38228;50.940;4.024;2023-10-19T05:04:27;11.30;;;1.60;;
52274;SDS011;38228;50.940;4.024;2023-10-19T05:06:53;14.88;;;1.70;;
52274;SDS011;38228;50.940;4.024;2023-10-19T05:09:19;8.52;;;1.70;;
52274;SDS011;38228;50.940;4.024;2023-10-19T05:11:44;11.10;;;1.73;;
52274;SDS011;38228;50.940;4.024;2023-10-19T05:14:11;14.00;;;1.92;;
52274;SDS011;38228;50.940;4.024;2023-10-19T05:16:40;11.32;;;1.80;;
52274;SDS011;38228;50.940;4.024;2023-10-19T05:19:06;13.60;;;2.22;;
52274;SDS011;38228;50.940;4.024;2023-10-19T05:21:32;8.20;;;1.45;;
52274;SDS011;38228;50.940;4.024;2023-10-19T05:23:59;15.05;;;2.28;;
52274;SDS011;38228;50.940;4.024;2023-10-19T05:26:25;16.52;;;2.13;;
52274;SDS011;38228;50.940;4.024;2023-10-19T05:28:52;13.48;;;1.83;;
52274;SDS011;38228;50.940;4.024;2023-10-19T05:31:19;15.93;;;2.20;;
52274;SDS011;38228;50.940;4.024;2023-10-19T05:33:45;16.25;;;1.77;;
52274;SDS011;38228;50.940;4.024;2023-10-19T05:36:13;10.48;;;1.63;;
52274;SDS011;38228;50.940;4.024;2023-10-19T05:38:40;13.88;;;2.20;;
52274;SDS011;38228;50.940;4.024;2023-10-19T05:41:06;11.10;;;1.65;;
52274;SDS011;38228;50.940;4.024;2023-10-19T05:43:32;14.10;;;1.92;;
52274;SDS011;38228;50.940;4.024;2023-10-19T05:45:59;15.30;;;2.10;;
52274;SDS011;38228;50.940;4.024;2023-10-19T05:48:25;11.15;;;2.22;;
52274;SDS011;38228;50.940;4.024;2023-10-19T05:50:51;9.65;;;2.08;;
52274;SDS011;38228;50.940;4.024;2023-10-19T05:53:17;11.13;;;1.88;;
52274;SDS011;38228;50.940;4.024;2023-10-19T05:55:46;10.43;;;2.03;;
52274;SDS011;38228;50.940;4.024;2023-10-19T05:58:12;10.48;;;1.67;;
52274;SDS011;38228;50.940;4.024;2023-10-19T06:00:37;12.45;;;2.25;;
52274;SDS011;38228;50.940;4.024;2023-10-19T06:03:03;15.40;;;2.40;;
52274;SDS011;38228;50.940;4.024;2023-10-19T06:05:29;16.20;;;1.73;;
52274;SDS011;38228;50.940;4.024;2023-10-19T06:07:55;13.25;;;2.88;;
52274;SDS011;38228;50.940;4.024;2023-10-19T06:10:21;11.63;;;1.80;;
52274;SDS011;38228;50.940;4.024;2023-10-19T06:12:48;8.40;;;1.60;;
52274;SDS011;38228;50.940;4.024;2023-10-19T06:15:15;15.98;;;2.45;;
52274;SDS011;38228;50.940;4.024;2023-10-19T06:17:42;15.15;;;2.47;;
52274;SDS011;38228;50.940;4.024;2023-10-19T06:20:11;12.10;;;2.25;;
52274;SDS011;38228;50.940;4.024;2023-10-19T06:22:50;18.38;;;2.80;;
52274;SDS011;38228;50.940;4.024;2023-10-19T06:25:18;10.07;;;1.98;;
52274;SDS011;38228;50.940;4.024;2023-10-19T06:27:47;14.07;;;2.38;;
52274;SDS011;38228;50.940;4.024;2023-10-19T06:30:14;12.75;;;2.08;;
52274;SDS011;38228;50.940;4.024;2023-10-19T06:32:47;13.75;;;2.58;;
52274;SDS011;38228;50.940;4.024;2023-10-19T06:35:15;13.90;;;2.70;;
52274;SDS011;38228;50.940;4.024;2023-10-19T06:37:42;15.32;;;2.40;;
52274;SDS011;38228;50.940;4.024;2023-10-19T06:40:08;18.75;;;4.60;;
52274;SDS011;38228;50.940;4.024;2023-10-19T06:42:36;13.52;;;2.60;;
52274;SDS011;38228;50.940;4.024;2023-10-19T06:45:03;9.88;;;2.78;;
52274;SDS011;38228;50.940;4.024;2023-10-19T06:47:29;21.63;;;2.90;;
52274;SDS011;38228;50.940;4.024;2023-10-19T06:49:56;11.50;;;2.38;;
52274;SDS011;38228;50.940;4.024;2023-10-19T06:52:22;14.15;;;2.60;;
52274;SDS011;38228;50.940;4.024;2023-10-19T06:54:48;16.45;;;2.63;;
52274;SDS011;38228;50.940;4.024;2023-10-19T06:57:14;17.95;;;2.60;;
52274;SDS011;38228;50.940;4.024;2023-10-19T06:59:40;15.95;;;2.40;;
52274;SDS011;38228;50.940;4.024;2023-10-19T07:02:05;12.88;;;2.45;;
52274;SDS011;38228;50.940;4.024;2023-10-19T07:04:32;15.23;;;2.50;;
52274;SDS011;38228;50.940;4.024;2023-10-19T07:06:58;15.70;;;2.60;;
52274;SDS011;38228;50.940;4.024;2023-10-19T07:09:26;17.63;;;3.85;;
52274;SDS011;38228;50.940;4.024;2023-10-19T07:11:51;15.90;;;3.17;;
52274;SDS011;38228;50.940;4.024;2023-10-19T07:14:21;18.77;;;2.80;;
52274;SDS011;38228;50.940;4.024;2023-10-19T07:16:48;14.98;;;2.65;;
52274;SDS011;38228;50.940;4.024;2023-10-19T07:19:15;17.83;;;3.10;;
52274;SDS011;38228;50.940;4.024;2023-10-19T07:21:41;15.73;;;2.67;;
52274;SDS011;38228;50.940;4.024;2023-10-19T07:24:08;17.58;;;2.85;;
52274;SDS011;38228;50.940;4.024;2023-10-19T07:26:36;19.80;;;4.43;;
52274;SDS011;38228;50.940;4.024;2023-10-19T07:29:16;14.10;;;3.05;;
52274;SDS011;38228;50.940;4.024;2023-10-19T07:31:43;27.27;;;4.10;;
52274;SDS011;38228;50.940;4.024;2023-10-19T07:34:09;47.55;;;5.10;;
52274;SDS011;38228;50.940;4.024;2023-10-19T07:36:38;19.08;;;3.97;;
52274;SDS011;38228;50.940;4.024;2023-10-19T07:39:03;21.13;;;5.18;;
52274;SDS011;38228;50.940;4.024;2023-10-19T07:41:29;18.15;;;4.32;;
52274;SDS011;38228;50.940;4.024;2023-10-19T07:44:01;16.98;;;4.38;;
52274;SDS011;38228;50.940;4.024;2023-10-19T07:46:27;19.60;;;4.80;;
52274;SDS011;38228;50.940;4.024;2023-10-19T07:48:54;18.27;;;4.25;;
52274;SDS011;38228;50.940;4.024;2023-10-19T07:51:20;22.17;;;4.78;;
52274;SDS011;38228;50.940;4.024;2023-10-19T07:53:45;19.98;;;4.47;;
52274;SDS011;38228;50.940;4.024;2023-10-19T07:56:11;20.33;;;4.10;;
52274;SDS011;38228;50.940;4.024;2023-10-19T07:58:37;16.15;;;3.38;;
52274;SDS011;38228;50.940;4.024;2023-10-19T08:01:02;15.13;;;3.33;;
52274;SDS011;38228;50.940;4.024;2023-10-19T08:03:30;16.48;;;3.33;;
52274;SDS011;38228;50.940;4.024;2023-10-19T08:05:56;18.45;;;3.63;;
52274;SDS011;38228;50.940;4.024;2023-10-19T08:08:22;17.23;;;2.92;;
52274;SDS011;38228;50.940;4.024;2023-10-19T08:10:49;15.82;;;2.40;;
52274;SDS011;38228;50.940;4.024;2023-10-19T08:13:16;20.90;;;3.17;;
52274;SDS011;38228;50.940;4.024;2023-10-19T08:15:42;19.13;;;3.42;;
52274;SDS011;38228;50.940;4.024;2023-10-19T08:18:07;15.98;;;2.97;;
52274;SDS011;38228;50.940;4.024;2023-10-19T08:20:36;12.45;;;2.28;;
52274;SDS011;38228;50.940;4.024;2023-10-19T08:23:02;19.65;;;5.43;;
52274;SDS011;38228;50.940;4.024;2023-10-19T08:25:28;22.63;;;8.63;;
52274;SDS011;38228;50.940;4.024;2023-10-19T08:27:54;19.08;;;4.00;;
52274;SDS011;38228;50.940;4.024;2023-10-19T08:30:23;14.73;;;2.33;;
52274;SDS011;38228;50.940;4.024;2023-10-19T08:32:50;18.30;;;2.35;;
52274;SDS011;38228;50.940;4.024;2023-10-19T08:35:17;17.30;;;2.42;;
52274;SDS011;38228;50.940;4.024;2023-10-19T08:37:48;19.98;;;2.60;;
52274;SDS011;38228;50.940;4.024;2023-10-19T08:40:14;13.43;;;2.10;;
52274;SDS011;38228;50.940;4.024;2023-10-19T08:42:44;16.33;;;2.40;;
52274;SDS011;38228;50.940;4.024;2023-10-19T08:45:11;18.05;;;2.80;;
52274;SDS011;38228;50.940;4.024;2023-10-19T08:47:48;15.65;;;3.08;;
52274;SDS011;38228;50.940;4.024;2023-10-19T08:50:27;13.95;;;2.80;;
52274;SDS011;38228;50.940;4.024;2023-10-19T08:52:55;15.35;;;2.65;;
52274;SDS011;38228;50.940;4.024;2023-10-19T08:55:22;19.25;;;2.72;;
52274;SDS011;38228;50.940;4.024;2023-10-19T08:57:48;14.60;;;2.53;;
52274;SDS011;38228;50.940;4.024;2023-10-19T09:00:15;17.98;;;2.70;;
52274;SDS011;38228;50.940;4.024;2023-10-19T09:02:45;18.38;;;2.63;;
52274;SDS011;38228;50.940;4.024;2023-10-19T09:05:11;15.82;;;2.78;;
52274;SDS011;38228;50.940;4.024;2023-10-19T09:07:51;15.65;;;2.33;;
52274;SDS011;38228;50.940;4.024;2023-10-19T09:10:22;11.70;;;2.47;;
52274;SDS011;38228;50.940;4.024;2023-10-19T09:13:01;17.20;;;2.80;;
52274;SDS011;38228;50.940;4.024;2023-10-19T09:15:29;17.63;;;2.42;;
52274;SDS011;38228;50.940;4.024;2023-10-19T09:17:58;15.43;;;2.40;;
52274;SDS011;38228;50.940;4.024;2023-10-19T09:20:41;15.77;;;2.30;;
52274;SDS011;38228;50.940;4.024;2023-10-19T09:23:17;17.58;;;2.20;;
52274;SDS011;38228;50.940;4.024;2023-10-19T09:25:44;16.48;;;2.75;;
52274;SDS011;38228;50.940;4.024;2023-10-19T09:28:10;18.33;;;2.95;;
52274;SDS011;38228;50.940;4.024;2023-10-19T09:30:38;17.67;;;2.60;;
52274;SDS011;38228;50.940;4.024;2023-10-19T09:33:05;15.82;;;2.65;;
52274;SDS011;38228;50.940;4.024;2023-10-19T09:35:32;15.63;;;3.03;;
52274;SDS011;38228;50.940;4.024;2023-10-19T09:37:59;19.95;;;3.13;;
52274;SDS011;38228;50.940;4.024;2023-10-19T09:40:26;14.90;;;2.70;;
52274;SDS011;38228;50.940;4.024;2023-10-19T09:42:54;12.38;;;2.40;;
52274;SDS011;38228;50.940;4.024;2023-10-19T09:45:23;12.52;;;2.53;;
52274;SDS011;38228;50.940;4.024;2023-10-19T09:47:55;15.95;;;3.22;;
52274;SDS011;38228;50.940;4.024;2023-10-19T09:50:21;19.30;;;2.67;;
52274;SDS011;38228;50.940;4.024;2023-10-19T09:52:47;12.18;;;2.42;;
52274;SDS011;38228;50.940;4.024;2023-10-19T09:55:19;18.00;;;2.28;;
52274;SDS011;38228;50.940;4.024;2023-10-19T09:57:52;16.20;;;2.15;;
52274;SDS011;38228;50.940;4.024;2023-10-19T10:00:32;15.10;;;2.45;;
52274;SDS011;38228;50.940;4.024;2023-10-19T10:02:59;15.18;;;2.97;;
52274;SDS011;38228;50.940;4.024;2023-10-19T10:08:42;15.45;;;2.58;;
52274;SDS011;38228;50.940;4.024;2023-10-19T10:13:57;14.85;;;2.30;;
52274;SDS011;38228;50.940;4.024;2023-10-19T10:16:24;13.55;;;2.20;;
52274;SDS011;38228;50.940;4.024;2023-10-19T10:18:55;15.40;;;2.58;;
52274;SDS011;38228;50.940;4.024;2023-10-19T10:21:25;17.07;;;2.63;;
52274;SDS011;38228;50.940;4.024;2023-10-19T10:23:52;14.60;;;2.55;;
52274;SDS011;38228;50.940;4.024;2023-10-19T10:26:21;11.77;;;2.50;;
52274;SDS011;38228;50.940;4.024;2023-10-19T10:29:12;10.35;;;2.20;;
52274;SDS011;38228;50.940;4.024;2023-10-19T10:31:46;13.38;;;2.72;;
52274;SDS011;38228;50.940;4.024;2023-10-19T10:37:04;19.02;;;2.67;;
52274;SDS011;38228;50.940;4.024;2023-10-19T10:39:33;16.27;;;3.22;;
52274;SDS011;38228;50.940;4.024;2023-10-19T10:42:06;11.68;;;2.22;;
52274;SDS011;38228;50.940;4.024;2023-10-19T10:44:37;17.63;;;3.20;;
52274;SDS011;38228;50.940;4.024;2023-10-19T10:47:07;19.23;;;3.35;;
52274;SDS011;38228;50.940;4.024;2023-10-19T10:49:34;13.48;;;3.00;;
52274;SDS011;38228;50.940;4.024;2023-10-19T10:52:28;15.25;;;2.15;;
52274;SDS011;38228;50.940;4.024;2023-10-19T10:55:06;17.50;;;3.03;;
52274;SDS011;38228;50.940;4.024;2023-10-19T10:57:36;16.05;;;3.10;;
52274;SDS011;38228;50.940;4.024;2023-10-19T11:00:03;15.13;;;2.72;;
52274;SDS011;38228;50.940;4.024;2023-10-19T11:02:34;14.18;;;2.78;;
52274;SDS011;38228;50.940;4.024;2023-10-19T11:05:01;15.60;;;2.88;;
52274;SDS011;38228;50.940;4.024;2023-10-19T11:07:28;18.80;;;2.17;;
52274;SDS011;38228;50.940;4.024;2023-10-19T11:09:54;14.50;;;2.40;;
52274;SDS011;38228;50.940;4.024;2023-10-19T11:12:21;16.38;;;2.83;;
52274;SDS011;38228;50.940;4.024;2023-10-19T11:17:26;11.15;;;2.10;;
52274;SDS011;38228;50.940;4.024;2023-10-19T11:19:57;16.00;;;2.42;;
52274;SDS011;38228;50.940;4.024;2023-10-19T11:22:23;11.32;;;2.40;;
52274;SDS011;38228;50.940;4.024;2023-10-19T11:24:53;16.73;;;2.53;;
52274;SDS011;38228;50.940;4.024;2023-10-19T11:27:27;18.33;;;3.60;;
52274;SDS011;38228;50.940;4.024;2023-10-19T11:29:54;11.45;;;3.50;;
52274;SDS011;38228;50.940;4.024;2023-10-19T11:32:21;12.68;;;2.35;;
52274;SDS011;38228;50.940;4.024;2023-10-19T11:34:47;11.65;;;2.15;;
52274;SDS011;38228;50.940;4.024;2023-10-19T11:37:13;14.48;;;2.60;;
52274;SDS011;38228;50.940;4.024;2023-10-19T11:39:39;16.10;;;2.78;;
52274;SDS011;38228;50.940;4.024;2023-10-19T11:42:05;12.52;;;2.67;;
52274;SDS011;38228;50.940;4.024;2023-10-19T11:44:30;18.85;;;2.53;;
52274;SDS011;38228;50.940;4.024;2023-10-19T11:46:56;9.85;;;2.80;;
52274;SDS011;38228;50.940;4.024;2023-10-19T11:49:22;12.52;;;2.85;;
52274;SDS011;38228;50.940;4.024;2023-10-19T11:51:48;11.23;;;2.50;;
52274;SDS011;38228;50.940;4.024;2023-10-19T11:54:13;12.00;;;2.85;;
52274;SDS011;38228;50.940;4.024;2023-10-19T11:56:39;12.25;;;2.70;;
52274;SDS011;38228;50.940;4.024;2023-10-19T11:59:05;12.85;;;2.40;;
52274;SDS011;38228;50.940;4.024;2023-10-19T12:01:32;9.27;;;2.10;;
52274;SDS011;38228;50.940;4.024;2023-10-19T12:03:58;12.57;;;2.45;;
52274;SDS011;38228;50.940;4.024;2023-10-19T12:06:25;11.55;;;2.30;;
52274;SDS011;38228;50.940;4.024;2023-10-19T12:08:50;12.75;;;2.33;;
52274;SDS011;38228;50.940;4.024;2023-10-19T12:11:16;8.57;;;1.67;;
52274;SDS011;38228;50.940;4.024;2023-10-19T12:13:44;10.95;;;2.03;;
52274;SDS011;38228;50.940;4.024;2023-10-19T12:16:11;11.02;;;1.90;;
52274;SDS011;38228;50.940;4.024;2023-10-19T12:18:43;6.35;;;1.77;;
52274;SDS011;38228;50.940;4.024;2023-10-19T12:21:09;8.80;;;1.75;;
52274;SDS011;38228;50.940;4.024;2023-10-19T12:23:43;5.40;;;1.30;;
52274;SDS011;38228;50.940;4.024;2023-10-19T12:26:09;9.15;;;1.27;;
52274;SDS011;38228;50.940;4.024;2023-10-19T12:28:42;5.82;;;1.70;;
52274;SDS011;38228;50.940;4.024;2023-10-19T12:31:08;5.28;;;1.10;;
52274;SDS011;38228;50.940;4.024;2023-10-19T12:33:35;7.78;;;1.55;;
52274;SDS011;38228;50.940;4.024;2023-10-19T12:36:01;4.50;;;1.25;;
52274;SDS011;38228;50.940;4.024;2023-10-19T12:38:44;4.65;;;1.00;;
52274;SDS011;38228;50.940;4.024;2023-10-19T12:41:10;3.45;;;1.00;;
52274;SDS011;38228;50.940;4.024;2023-10-19T12:43:36;5.72;;;1.15;;
52274;SDS011;38228;50.940;4.024;2023-10-19T12:46:02;7.47;;;1.60;;
52274;SDS011;38228;50.940;4.024;2023-10-19T12:48:28;6.45;;;1.20;;
52274;SDS011;38228;50.940;4.024;2023-10-19T12:50:58;6.38;;;0.80;;
52274;SDS011;38228;50.940;4.024;2023-10-19T12:53:26;2.85;;;1.60;;
52274;SDS011;38228;50.940;4.024;2023-10-19T12:55:52;4.97;;;0.80;;
52274;SDS011;38228;50.940;4.024;2023-10-19T12:58:18;3.55;;;0.80;;
52274;SDS011;38228;50.940;4.024;2023-10-19T13:00:47;4.25;;;0.80;;
52274;SDS011;38228;50.940;4.024;2023-10-19T13:03:14;5.45;;;1.00;;
52274;SDS011;38228;50.940;4.024;2023-10-19T13:05:43;2.55;;;0.80;;
52274;SDS011;38228;50.940;4.024;2023-10-19T13:08:13;4.20;;;1.15;;
52274;SDS011;38228;50.940;4.024;2023-10-19T13:10:39;6.70;;;0.70;;
52274;SDS011;38228;50.940;4.024;2023-10-19T13:13:10;3.65;;;0.80;;
52274;SDS011;38228;50.940;4.024;2023-10-19T13:15:40;4.15;;;0.80;;
52274;SDS011;38228;50.940;4.024;2023-10-19T13:18:09;3.55;;;0.90;;
52274;SDS011;38228;50.940;4.024;2023-10-19T13:20:36;5.65;;;0.80;;
52274;SDS011;38228;50.940;4.024;2023-10-19T13:23:03;6.00;;;1.13;;
52274;SDS011;38228;50.940;4.024;2023-10-19T13:25:37;15.48;;;4.65;;
52274;SDS011;38228;50.940;4.024;2023-10-19T13:28:13;3.17;;;1.10;;
52274;SDS011;38228;50.940;4.024;2023-10-19T13:30:40;4.80;;;0.98;;
52274;SDS011;38228;50.940;4.024;2023-10-19T13:33:07;3.17;;;0.90;;
52274;SDS011;38228;50.940;4.024;2023-10-19T13:35:35;3.60;;;0.80;;
52274;SDS011;38228;50.940;4.024;2023-10-19T13:38:04;2.35;;;1.02;;
52274;SDS011;38228;50.940;4.024;2023-10-19T13:40:31;5.85;;;1.38;;
52274;SDS011;38228;50.940;4.024;2023-10-19T13:42:57;4.72;;;0.95;;
52274;SDS011;38228;50.940;4.024;2023-10-19T13:45:24;5.07;;;0.90;;
52274;SDS011;38228;50.940;4.024;2023-10-19T13:47:50;3.30;;;0.70;;
52274;SDS011;38228;50.940;4.024;2023-10-19T13:50:20;4.72;;;1.08;;
52274;SDS011;38228;50.940;4.024;2023-10-19T13:52:51;2.58;;;0.90;;
52274;SDS011;38228;50.940;4.024;2023-10-19T13:55:18;6.63;;;0.88;;
52274;SDS011;38228;50.940;4.024;2023-10-19T13:57:46;3.33;;;1.20;;
52274;SDS011;38228;50.940;4.024;2023-10-19T14:00:13;5.05;;;1.10;;
52274;SDS011;38228;50.940;4.024;2023-10-19T14:02:50;3.13;;;0.90;;
52274;SDS011;38228;50.940;4.024;2023-10-19T14:05:17;3.92;;;1.00;;
52274;SDS011;38228;50.940;4.024;2023-10-19T14:07:44;3.75;;;0.60;;
52274;SDS011;38228;50.940;4.024;2023-10-19T14:10:12;5.30;;;0.90;;
52274;SDS011;38228;50.940;4.024;2023-10-19T14:12:42;3.35;;;1.08;;
52274;SDS011;38228;50.940;4.024;2023-10-19T14:15:13;6.05;;;1.30;;
52274;SDS011;38228;50.940;4.024;2023-10-19T14:20:11;5.18;;;2.00;;
52274;SDS011;38228;50.940;4.024;2023-10-19T14:25:09;20.02;;;1.65;;
52274;SDS011;38228;50.940;4.024;2023-10-19T14:27:40;5.55;;;0.90;;
52274;SDS011;38228;50.940;4.024;2023-10-19T14:30:11;3.30;;;0.80;;
52274;SDS011;38228;50.940;4.024;2023-10-19T14:32:39;3.95;;;0.95;;
52274;SDS011;38228;50.940;4.024;2023-10-19T14:35:07;4.85;;;1.10;;
52274;SDS011;38228;50.940;4.024;2023-10-19T14:37:36;3.50;;;0.90;;
52274;SDS011;38228;50.940;4.024;2023-10-19T14:40:04;3.53;;;0.80;;
52274;SDS011;38228;50.940;4.024;2023-10-19T14:42:40;4.65;;;1.00;;
52274;SDS011;38228;50.940;4.024;2023-10-19T14:45:10;5.05;;;0.90;;
52274;SDS011;38228;50.940;4.024;2023-10-19T14:47:39;3.42;;;0.90;;
52274;SDS011;38228;50.940;4.024;2023-10-19T14:50:12;4.65;;;1.23;;
52274;SDS011;38228;50.940;4.024;2023-10-19T14:52:41;6.38;;;1.08;;
52274;SDS011;38228;50.940;4.024;2023-10-19T14:55:07;3.78;;;1.15;;
52274;SDS011;38228;50.940;4.024;2023-10-19T14:57:35;5.50;;;0.90;;
52274;SDS011;38228;50.940;4.024;2023-10-19T15:00:07;4.93;;;0.98;;
52274;SDS011;38228;50.940;4.024;2023-10-19T15:02:41;5.97;;;0.85;;
52274;SDS011;38228;50.940;4.024;2023-10-19T15:05:10;5.93;;;0.98;;
52274;SDS011;38228;50.940;4.024;2023-10-19T15:07:39;3.45;;;0.85;;
52274;SDS011;38228;50.940;4.024;2023-10-19T15:10:07;3.58;;;0.88;;
52274;SDS011;38228;50.940;4.024;2023-10-19T15:12:39;1.65;;;0.65;;
52274;SDS011;38228;50.940;4.024;2023-10-19T15:15:06;3.38;;;0.90;;